Heroic Leader — C6ZD2 — position and weather

sailwx.info

Track history (hours):
 
Tides and Currents Weather Stations Pressure Air Temp Water Temp Dewpoint Dewpoint Depression Visibility Wind Speed Wind Dir Waves Ship Positions

Heroic Leader

Last reported at 2016-Aug-25 10:18 UTC. Time now 2016-Aug-27 18:48 UTC.
Position N 38°44' W 070°49'.

Length 200 m; draft 8.2 m.

Type: Cargo ship. MMSI: 311052700.

Date/timePositionNaut miles runAvg speedWind from/ knotsBaromVisibWave heightAir tempDewpointWater temp
2016-Aug-25 10:18N 38°44' W 070°49'20916.1
2016-Aug-24 21:15N 42°10' W 069°56'1116.4
2016-Aug-24 20:33N 42°17' W 070°08'1817.7
2016-Aug-24 19:33N 42°19' W 070°32'1615.5
2016-Aug-24 18:33N 42°23' W 070°52'8 8.1
2016-Aug-24 17:33N 42°23' W 071°03'0 0.4
2016-Aug-24 16:32N 42°23' W 071°03'0 0.0
2016-Aug-24 15:32N 42°23' W 071°03'0 0.0
2016-Aug-24 14:32N 42°23' W 071°03'0 0.0
2016-Aug-24 13:29N 42°23' W 071°03'0 0.0
2016-Aug-24 12:32N 42°23' W 071°03'0 0.0
2016-Aug-24 11:32N 42°23' W 071°03'0 0.0
2016-Aug-24 10:32N 42°23' W 071°03'0 0.0
2016-Aug-24 09:32N 42°23' W 071°03'0 0.0
2016-Aug-24 08:29N 42°23' W 071°03'0 0.0
2016-Aug-24 07:32N 42°23' W 071°03'0 0.0
2016-Aug-24 06:32N 42°23' W 071°03'0 0.0
2016-Aug-24 04:29N 42°23' W 071°03'0 0.0
2016-Aug-24 03:29N 42°23' W 071°03'0 0.0
2016-Aug-24 02:29N 42°23' W 071°03'0 0.0
2016-Aug-24 01:32N 42°23' W 071°03'0 0.0
2016-Aug-24 00:32N 42°23' W 071°03'0 0.0
2016-Aug-23 23:32N 42°23' W 071°03'0 0.0
2016-Aug-23 22:29N 42°23' W 071°03'0 0.0
2016-Aug-23 21:32N 42°23' W 071°03'0 0.0
2016-Aug-23 20:32N 42°23' W 071°03'0 0.0
2016-Aug-23 19:32N 42°23' W 071°03'0 0.0
2016-Aug-23 18:32N 42°23' W 071°03'0 0.0
2016-Aug-23 17:32N 42°23' W 071°03'0 0.0
2016-Aug-23 16:29N 42°23' W 071°03'0 0.0
2016-Aug-23 15:32N 42°23' W 071°03'0 0.0
2016-Aug-23 14:29N 42°23' W 071°03'0 0.0
2016-Aug-23 13:32N 42°23' W 071°03'0 0.0
2016-Aug-23 12:32N 42°23' W 071°03'0 0.0
2016-Aug-23 11:32N 42°23' W 071°03'0 0.0
2016-Aug-23 10:32N 42°23' W 071°03'0 0.4
2016-Aug-23 09:34N 42°23' W 071°03'5 5.5
2016-Aug-23 08:34N 42°22' W 070°55'9 8.7
2016-Aug-23 07:33N 42°23' W 070°44'2 1.8
2016-Aug-23 06:33N 42°21' W 070°43'5 4.9
2016-Aug-23 05:33N 42°17' W 070°39'8 7.6
2016-Aug-23 04:33N 42°12' W 070°32'7 7.1
2016-Aug-23 03:33N 42°05' W 070°29'7 7.3
2016-Aug-23 02:34N 41°58' W 070°28'51 9.8
2016-Aug-22 21:20N 41°27' W 071°23'810.2
2016-Aug-22 20:33N 41°35' W 071°24'1 0.1
2016-Aug-22 09:33N 41°36' W 071°24'48 2.0
2016-Aug-21 09:34N 40°50' W 071°43'2 1.5
2016-Aug-21 08:33N 40°49' W 071°43'2 1.9
2016-Aug-21 07:33N 40°47' W 071°45'2 1.8
2016-Aug-21 06:23N 40°45' W 071°46'2 2.9
2016-Aug-21 05:33N 40°43' W 071°48'0 0.3
2016-Aug-21 04:33N 40°43' W 071°47'0 0.5
2016-Aug-21 03:33N 40°43' W 071°47'1 0.6
2016-Aug-21 02:33N 40°42' W 071°47'1 0.7
2016-Aug-21 01:24N 40°42' W 071°46'12610.2
2016-Aug-20 13:08N 39°16' W 073°46'916.0
2016-Aug-20 12:33N 39°09' W 073°54'1615.8
2016-Aug-20 11:34N 38°58' W 074°09'1615.6
2016-Aug-20 10:33N 38°49' W 074°25'1515.2
2016-Aug-20 09:34N 38°46' W 074°44'1514.8
2016-Aug-20 08:34N 38°48' W 075°03'1615.7
2016-Aug-20 07:33N 39°03' W 075°10'1818.1
2016-Aug-20 06:33N 39°18' W 075°23'1514.6
2016-Aug-20 05:33N 39°30' W 075°34'6 5.8
2016-Aug-20 04:33N 39°33' W 075°40'8 7.8
2016-Aug-20 03:33N 39°32' W 075°50'9 9.3
2016-Aug-20 02:33N 39°27' W 075°60'1212.3
2016-Aug-20 01:33N 39°19' W 076°13'1211.9
2016-Aug-20 00:34N 39°09' W 076°20'1111.0
2016-Aug-19 23:33N 39°14' W 076°33'1 1.2
2016-Aug-19 22:30N 39°15' W 076°32'0 0.0
2016-Aug-19 21:30N 39°15' W 076°32'0 0.0
2016-Aug-19 20:25N 39°15' W 076°32'0 0.0
2016-Aug-19 19:25N 39°15' W 076°32'0 0.0
2016-Aug-19 18:30N 39°15' W 076°32'0 0.0
2016-Aug-19 17:30N 39°15' W 076°32'0 0.0
2016-Aug-19 16:30N 39°15' W 076°32'0 0.0
2016-Aug-19 15:25N 39°15' W 076°32'0 0.0
2016-Aug-19 14:25N 39°15' W 076°32'0 0.0
2016-Aug-19 13:30N 39°15' W 076°32'0 0.0
2016-Aug-19 12:30N 39°15' W 076°32'0 0.0
2016-Aug-19 11:30N 39°15' W 076°32'0 0.0
2016-Aug-19 10:30N 39°15' W 076°32'0 0.0
2016-Aug-19 09:32N 39°15' W 076°32'0 0.0
2016-Aug-19 08:31N 39°15' W 076°32'4 4.3
2016-Aug-19 07:33N 39°12' W 076°29'1212.4
2016-Aug-19 06:33N 39°01' W 076°23'1717.3
2016-Aug-19 05:33N 38°43' W 076°26'1817.9
2016-Aug-19 04:32N 38°25' W 076°21'2318.4
2016-Aug-19 03:16N 38°03' W 076°13'6216.5
2016-Aug-18 23:30N 37°02' W 076°03'1111.2
2016-Aug-18 22:33N 36°54' W 075°54'70 5.4
2016-Aug-18 09:30N 35°59' W 074°60'  
Track history (hours):
 
Tides and Currents Weather Stations Pressure Air Temp Water Temp Dewpoint Dewpoint Depression Visibility Wind Speed Wind Dir Waves Ship Positions

Heroic Leader

Last reported at 2016-Aug-25 10:18 UTC. Time now 2016-Aug-27 18:48 UTC.
Position N 38°44' W 070°49'.

Length 200 m; draft 8.2 m.

Type: Cargo ship. MMSI: 311052700.

Date/timePositionNaut miles runAvg speedWind from/ knotsBaromVisibWave heightAir tempDewpointWater temp
2016-Aug-25 10:18N 38°44' W 070°49'20916.1
2016-Aug-24 21:15N 42°10' W 069°56'1116.4
2016-Aug-24 20:33N 42°17' W 070°08'1817.7
2016-Aug-24 19:33N 42°19' W 070°32'1615.5
2016-Aug-24 18:33N 42°23' W 070°52'8 8.1
2016-Aug-24 17:33N 42°23' W 071°03'0 0.4
2016-Aug-24 16:32N 42°23' W 071°03'0 0.0
2016-Aug-24 15:32N 42°23' W 071°03'0 0.0
2016-Aug-24 14:32N 42°23' W 071°03'0 0.0
2016-Aug-24 13:29N 42°23' W 071°03'0 0.0
2016-Aug-24 12:32N 42°23' W 071°03'0 0.0
2016-Aug-24 11:32N 42°23' W 071°03'0 0.0
2016-Aug-24 10:32N 42°23' W 071°03'0 0.0
2016-Aug-24 09:32N 42°23' W 071°03'0 0.0
2016-Aug-24 08:29N 42°23' W 071°03'0 0.0
2016-Aug-24 07:32N 42°23' W 071°03'0 0.0
2016-Aug-24 06:32N 42°23' W 071°03'0 0.0
2016-Aug-24 04:29N 42°23' W 071°03'0 0.0
2016-Aug-24 03:29N 42°23' W 071°03'0 0.0
2016-Aug-24 02:29N 42°23' W 071°03'0 0.0
2016-Aug-24 01:32N 42°23' W 071°03'0 0.0
2016-Aug-24 00:32N 42°23' W 071°03'0 0.0
2016-Aug-23 23:32N 42°23' W 071°03'0 0.0
2016-Aug-23 22:29N 42°23' W 071°03'0 0.0
2016-Aug-23 21:32N 42°23' W 071°03'0 0.0
2016-Aug-23 20:32N 42°23' W 071°03'0 0.0
2016-Aug-23 19:32N 42°23' W 071°03'0 0.0
2016-Aug-23 18:32N 42°23' W 071°03'0 0.0
2016-Aug-23 17:32N 42°23' W 071°03'0 0.0
2016-Aug-23 16:29N 42°23' W 071°03'0 0.0
2016-Aug-23 15:32N 42°23' W 071°03'0 0.0
2016-Aug-23 14:29N 42°23' W 071°03'0 0.0
2016-Aug-23 13:32N 42°23' W 071°03'0 0.0
2016-Aug-23 12:32N 42°23' W 071°03'0 0.0
2016-Aug-23 11:32N 42°23' W 071°03'0 0.0
2016-Aug-23 10:32N 42°23' W 071°03'0 0.4
2016-Aug-23 09:34N 42°23' W 071°03'5 5.5
2016-Aug-23 08:34N 42°22' W 070°55'9 8.7
2016-Aug-23 07:33N 42°23' W 070°44'2 1.8
2016-Aug-23 06:33N 42°21' W 070°43'5 4.9
2016-Aug-23 05:33N 42°17' W 070°39'8 7.6
2016-Aug-23 04:33N 42°12' W 070°32'7 7.1
2016-Aug-23 03:33N 42°05' W 070°29'7 7.3
2016-Aug-23 02:34N 41°58' W 070°28'51 9.8
2016-Aug-22 21:20N 41°27' W 071°23'810.2
2016-Aug-22 20:33N 41°35' W 071°24'1 0.1
2016-Aug-22 09:33N 41°36' W 071°24'48 2.0
2016-Aug-21 09:34N 40°50' W 071°43'2 1.5
2016-Aug-21 08:33N 40°49' W 071°43'2 1.9
2016-Aug-21 07:33N 40°47' W 071°45'2 1.8
2016-Aug-21 06:23N 40°45' W 071°46'2 2.9
2016-Aug-21 05:33N 40°43' W 071°48'0 0.3
2016-Aug-21 04:33N 40°43' W 071°47'0 0.5
2016-Aug-21 03:33N 40°43' W 071°47'1 0.6
2016-Aug-21 02:33N 40°42' W 071°47'1 0.7
2016-Aug-21 01:24N 40°42' W 071°46'12610.2
2016-Aug-20 13:08N 39°16' W 073°46'916.0
2016-Aug-20 12:33N 39°09' W 073°54'1615.8
2016-Aug-20 11:34N 38°58' W 074°09'1615.6
2016-Aug-20 10:33N 38°49' W 074°25'1515.2
2016-Aug-20 09:34N 38°46' W 074°44'1514.8
2016-Aug-20 08:34N 38°48' W 075°03'1615.7
2016-Aug-20 07:33N 39°03' W 075°10'1818.1
2016-Aug-20 06:33N 39°18' W 075°23'1514.6
2016-Aug-20 05:33N 39°30' W 075°34'6 5.8
2016-Aug-20 04:33N 39°33' W 075°40'8 7.8
2016-Aug-20 03:33N 39°32' W 075°50'9 9.3
2016-Aug-20 02:33N 39°27' W 075°60'1212.3
2016-Aug-20 01:33N 39°19' W 076°13'1211.9
2016-Aug-20 00:34N 39°09' W 076°20'1111.0
2016-Aug-19 23:33N 39°14' W 076°33'1 1.2
2016-Aug-19 22:30N 39°15' W 076°32'0 0.0
2016-Aug-19 21:30N 39°15' W 076°32'0 0.0
2016-Aug-19 20:25N 39°15' W 076°32'0 0.0
2016-Aug-19 19:25N 39°15' W 076°32'0 0.0
2016-Aug-19 18:30N 39°15' W 076°32'0 0.0
2016-Aug-19 17:30N 39°15' W 076°32'0 0.0
2016-Aug-19 16:30N 39°15' W 076°32'0 0.0
2016-Aug-19 15:25N 39°15' W 076°32'0 0.0
2016-Aug-19 14:25N 39°15' W 076°32'0 0.0
2016-Aug-19 13:30N 39°15' W 076°32'0 0.0
2016-Aug-19 12:30N 39°15' W 076°32'0 0.0
2016-Aug-19 11:30N 39°15' W 076°32'0 0.0
2016-Aug-19 10:30N 39°15' W 076°32'0 0.0
2016-Aug-19 09:32N 39°15' W 076°32'0 0.0
2016-Aug-19 08:31N 39°15' W 076°32'4 4.3
2016-Aug-19 07:33N 39°12' W 076°29'1212.4
2016-Aug-19 06:33N 39°01' W 076°23'1717.3
2016-Aug-19 05:33N 38°43' W 076°26'1817.9
2016-Aug-19 04:32N 38°25' W 076°21'2318.4
2016-Aug-19 03:16N 38°03' W 076°13'6216.5
2016-Aug-18 23:30N 37°02' W 076°03'1111.2
2016-Aug-18 22:33N 36°54' W 075°54'70 5.4
2016-Aug-18 09:30N 35°59' W 074°60'  

Dump ship's entire track history